sensor_id;sensor_type;location;lat;lon;timestamp;pressure;altitude;pressure_sealevel;temperature
61977;BMP280;45905;50.570;10.428;2022-08-21T00:00:27;98005.88;;;17.82
61977;BMP280;45905;50.570;10.428;2022-08-21T00:03:01;98009.59;;;17.80
61977;BMP280;45905;50.570;10.428;2022-08-21T00:05:29;97998.75;;;17.78
61977;BMP280;45905;50.570;10.428;2022-08-21T00:07:57;98002.53;;;17.76
61977;BMP280;45905;50.570;10.428;2022-08-21T00:10:25;97995.22;;;17.73
61977;BMP280;45905;50.570;10.428;2022-08-21T00:12:52;98001.53;;;17.70
61977;BMP280;45905;50.570;10.428;2022-08-21T00:15:31;98002.72;;;17.68
61977;BMP280;45905;50.570;10.428;2022-08-21T00:17:59;98004.69;;;17.66
61977;BMP280;45905;50.570;10.428;2022-08-21T00:20:26;97996.41;;;17.64
61977;BMP280;45905;50.570;10.428;2022-08-21T00:22:54;97990.06;;;17.60
61977;BMP280;45905;50.570;10.428;2022-08-21T00:25:24;97991.09;;;17.59
61977;BMP280;45905;50.570;10.428;2022-08-21T00:27:53;97989.88;;;17.55
61977;BMP280;45905;50.570;10.428;2022-08-21T00:30:24;97994.41;;;17.53
61977;BMP280;45905;50.570;10.428;2022-08-21T00:32:54;97988.13;;;17.49
61977;BMP280;45905;50.570;10.428;2022-08-21T00:35:28;97990.88;;;17.48
61977;BMP280;45905;50.570;10.428;2022-08-21T00:37:56;97989.47;;;17.45
61977;BMP280;45905;50.570;10.428;2022-08-21T00:40:43;97994.78;;;17.44
61977;BMP280;45905;50.570;10.428;2022-08-21T00:43:15;98000.31;;;17.41
61977;BMP280;45905;50.570;10.428;2022-08-21T00:45:42;98007.78;;;17.36
61977;BMP280;45905;50.570;10.428;2022-08-21T00:48:10;98007.41;;;17.33
61977;BMP280;45905;50.570;10.428;2022-08-21T00:50:46;98012.91;;;17.30
61977;BMP280;45905;50.570;10.428;2022-08-21T00:53:16;98003.03;;;17.27
61977;BMP280;45905;50.570;10.428;2022-08-21T00:55:45;98008.16;;;17.27
61977;BMP280;45905;50.570;10.428;2022-08-21T00:58:14;98002.25;;;17.26
61977;BMP280;45905;50.570;10.428;2022-08-21T01:00:47;97996.13;;;17.27
61977;BMP280;45905;50.570;10.428;2022-08-21T01:03:20;98005.78;;;17.25
61977;BMP280;45905;50.570;10.428;2022-08-21T01:05:51;98008.34;;;17.19
61977;BMP280;45905;50.570;10.428;2022-08-21T01:08:20;98009.72;;;17.15
61977;BMP280;45905;50.570;10.428;2022-08-21T01:10:49;98003.38;;;17.11
61977;BMP280;45905;50.570;10.428;2022-08-21T01:13:26;98000.22;;;17.09
61977;BMP280;45905;50.570;10.428;2022-08-21T01:15:58;98000.41;;;17.08
61977;BMP280;45905;50.570;10.428;2022-08-21T01:18:28;98004.16;;;17.05
61977;BMP280;45905;50.570;10.428;2022-08-21T01:21:03;98001.00;;;17.03
61977;BMP280;45905;50.570;10.428;2022-08-21T01:23:31;97999.63;;;17.01
61977;BMP280;45905;50.570;10.428;2022-08-21T01:25:58;97993.50;;;16.96
61977;BMP280;45905;50.570;10.428;2022-08-21T01:28:27;97988.72;;;16.93
61977;BMP280;45905;50.570;10.428;2022-08-21T01:30:59;97992.44;;;16.90
61977;BMP280;45905;50.570;10.428;2022-08-21T01:33:28;97997.78;;;16.89
61977;BMP280;45905;50.570;10.428;2022-08-21T01:35:55;97996.19;;;16.88
61977;BMP280;45905;50.570;10.428;2022-08-21T01:38:23;97992.25;;;16.85
61977;BMP280;45905;50.570;10.428;2022-08-21T01:40:53;97985.75;;;16.83
61977;BMP280;45905;50.570;10.428;2022-08-21T01:43:23;97988.69;;;16.80
61977;BMP280;45905;50.570;10.428;2022-08-21T01:46:05;97997.34;;;16.79
61977;BMP280;45905;50.570;10.428;2022-08-21T01:48:33;97988.09;;;16.78
61977;BMP280;45905;50.570;10.428;2022-08-21T01:51:00;97985.91;;;16.75
61977;BMP280;45905;50.570;10.428;2022-08-21T01:53:27;97986.28;;;16.72
61977;BMP280;45905;50.570;10.428;2022-08-21T01:56:00;97979.00;;;16.69
61977;BMP280;45905;50.570;10.428;2022-08-21T01:58:27;97983.88;;;16.64
61977;BMP280;45905;50.570;10.428;2022-08-21T02:00:54;97979.16;;;16.61
61977;BMP280;45905;50.570;10.428;2022-08-21T02:03:21;97979.53;;;16.59
61977;BMP280;45905;50.570;10.428;2022-08-21T02:06:03;97981.31;;;16.58
61977;BMP280;45905;50.570;10.428;2022-08-21T02:08:31;97974.78;;;16.56
61977;BMP280;45905;50.570;10.428;2022-08-21T02:10:59;97968.31;;;16.53
61977;BMP280;45905;50.570;10.428;2022-08-21T02:13:27;97968.31;;;16.53
61977;BMP280;45905;50.570;10.428;2022-08-21T02:15:54;97972.63;;;16.53
61977;BMP280;45905;50.570;10.428;2022-08-21T02:18:21;97972.03;;;16.51
61977;BMP280;45905;50.570;10.428;2022-08-21T02:20:49;97958.03;;;16.47
61977;BMP280;45905;50.570;10.428;2022-08-21T02:23:23;97967.88;;;16.43
61977;BMP280;45905;50.570;10.428;2022-08-21T02:26:03;97970.78;;;16.41
61977;BMP280;45905;50.570;10.428;2022-08-21T02:28:34;97971.94;;;16.38
61977;BMP280;45905;50.570;10.428;2022-08-21T02:31:03;97971.38;;;16.36
61977;BMP280;45905;50.570;10.428;2022-08-21T02:33:30;97967.41;;;16.34
61977;BMP280;45905;50.570;10.428;2022-08-21T02:35:58;97965.22;;;16.31
61977;BMP280;45905;50.570;10.428;2022-08-21T02:38:31;97968.75;;;16.30
61977;BMP280;45905;50.570;10.428;2022-08-21T02:41:01;97968.94;;;16.28
61977;BMP280;45905;50.570;10.428;2022-08-21T02:43:28;97969.94;;;16.27
61977;BMP280;45905;50.570;10.428;2022-08-21T02:45:57;97976.03;;;16.26
61977;BMP280;45905;50.570;10.428;2022-08-21T02:48:29;97971.28;;;16.23
61977;BMP280;45905;50.570;10.428;2022-08-21T02:51:00;97979.31;;;16.21
61977;BMP280;45905;50.570;10.428;2022-08-21T02:53:29;97973.63;;;16.19
61977;BMP280;45905;50.570;10.428;2022-08-21T02:56:01;97974.59;;;16.18
61977;BMP280;45905;50.570;10.428;2022-08-21T02:58:34;97978.94;;;16.17
61977;BMP280;45905;50.570;10.428;2022-08-21T03:01:02;97967.13;;;16.16
61977;BMP280;45905;50.570;10.428;2022-08-21T03:03:30;97976.72;;;16.14
61977;BMP280;45905;50.570;10.428;2022-08-21T03:05:57;97967.66;;;16.12
61977;BMP280;45905;50.570;10.428;2022-08-21T03:08:25;97965.50;;;16.09
61977;BMP280;45905;50.570;10.428;2022-08-21T03:10:54;97969.03;;;16.08
61977;BMP280;45905;50.570;10.428;2022-08-21T03:13:22;97963.31;;;16.06
61977;BMP280;45905;50.570;10.428;2022-08-21T03:15:50;97966.84;;;16.05
61977;BMP280;45905;50.570;10.428;2022-08-21T03:18:18;97964.66;;;16.02
61977;BMP280;45905;50.570;10.428;2022-08-21T03:20:47;97967.41;;;16.01
61977;BMP280;45905;50.570;10.428;2022-08-21T03:23:16;97963.47;;;15.98
61977;BMP280;45905;50.570;10.428;2022-08-21T03:25:47;97969.53;;;15.97
61977;BMP280;45905;50.570;10.428;2022-08-21T03:28:20;97973.22;;;15.95
61977;BMP280;45905;50.570;10.428;2022-08-21T03:30:50;97969.28;;;15.92
61977;BMP280;45905;50.570;10.428;2022-08-21T03:33:19;97971.63;;;15.94
61977;BMP280;45905;50.570;10.428;2022-08-21T03:36:00;97974.97;;;15.94
61977;BMP280;45905;50.570;10.428;2022-08-21T03:38:30;97969.28;;;15.92
61977;BMP280;45905;50.570;10.428;2022-08-21T03:40:59;97967.72;;;15.91
61977;BMP280;45905;50.570;10.428;2022-08-21T03:43:27;97972.03;;;15.91
61977;BMP280;45905;50.570;10.428;2022-08-21T03:46:01;97975.56;;;15.90
61977;BMP280;45905;50.570;10.428;2022-08-21T03:48:29;97967.09;;;15.89
61977;BMP280;45905;50.570;10.428;2022-08-21T03:50:56;97973.00;;;15.90
61977;BMP280;45905;50.570;10.428;2022-08-21T03:53:25;97973.19;;;15.88
61977;BMP280;45905;50.570;10.428;2022-08-21T03:55:53;97966.50;;;15.87
61977;BMP280;45905;50.570;10.428;2022-08-21T03:58:25;97972.41;;;15.88
61977;BMP280;45905;50.570;10.428;2022-08-21T04:00:57;97974.75;;;15.89
61977;BMP280;45905;50.570;10.428;2022-08-21T04:03:26;97973.63;;;15.92
61977;BMP280;45905;50.570;10.428;2022-08-21T04:05:54;97981.06;;;15.93
61977;BMP280;45905;50.570;10.428;2022-08-21T04:08:21;97978.34;;;15.95
61977;BMP280;45905;50.570;10.428;2022-08-21T04:10:52;97983.25;;;15.96
61977;BMP280;45905;50.570;10.428;2022-08-21T04:13:20;97982.31;;;15.97
61977;BMP280;45905;50.570;10.428;2022-08-21T04:15:49;97986.44;;;15.98
61977;BMP280;45905;50.570;10.428;2022-08-21T04:18:17;97994.72;;;16.00
61977;BMP280;45905;50.570;10.428;2022-08-21T04:20:48;97992.97;;;16.01
61977;BMP280;45905;50.570;10.428;2022-08-21T04:23:19;97994.56;;;16.02
61977;BMP280;45905;50.570;10.428;2022-08-21T04:25:55;98005.75;;;16.01
61977;BMP280;45905;50.570;10.428;2022-08-21T04:28:25;97992.97;;;16.01
61977;BMP280;45905;50.570;10.428;2022-08-21T04:30:57;98008.09;;;16.02
61977;BMP280;45905;50.570;10.428;2022-08-21T04:33:24;98003.41;;;16.05
61977;BMP280;45905;50.570;10.428;2022-08-21T04:35:52;98007.91;;;16.03
61977;BMP280;45905;50.570;10.428;2022-08-21T04:38:19;98020.31;;;16.06
61977;BMP280;45905;50.570;10.428;2022-08-21T04:40:49;98019.53;;;16.06
61977;BMP280;45905;50.570;10.428;2022-08-21T04:43:17;98018.56;;;16.07
61977;BMP280;45905;50.570;10.428;2022-08-21T04:45:47;98026.22;;;16.07
61977;BMP280;45905;50.570;10.428;2022-08-21T04:48:19;98032.91;;;16.08
61977;BMP280;45905;50.570;10.428;2022-08-21T04:54:01;98039.44;;;16.10
61977;BMP280;45905;50.570;10.428;2022-08-21T04:56:38;98034.31;;;16.10
61977;BMP280;45905;50.570;10.428;2022-08-21T04:59:41;98033.53;;;16.10
61977;BMP280;45905;50.570;10.428;2022-08-21T05:02:09;98037.63;;;16.11
61977;BMP280;45905;50.570;10.428;2022-08-21T05:04:45;98045.09;;;16.06
61977;BMP280;45905;50.570;10.428;2022-08-21T05:07:20;98045.25;;;16.04
61977;BMP280;45905;50.570;10.428;2022-08-21T05:10:09;98039.13;;;15.99
61977;BMP280;45905;50.570;10.428;2022-08-21T05:12:42;98037.56;;;15.98
61977;BMP280;45905;50.570;10.428;2022-08-21T05:15:11;98034.81;;;16.00
61977;BMP280;45905;50.570;10.428;2022-08-21T05:17:41;98040.53;;;16.02
61977;BMP280;45905;50.570;10.428;2022-08-21T05:20:11;98044.66;;;16.03
61977;BMP280;45905;50.570;10.428;2022-08-21T05:22:39;98045.09;;;16.06
61977;BMP280;45905;50.570;10.428;2022-08-21T05:25:08;98050.63;;;16.09
61977;BMP280;45905;50.570;10.428;2022-08-21T05:27:38;98045.72;;;16.14
61977;BMP280;45905;50.570;10.428;2022-08-21T05:30:10;98058.16;;;16.17
61977;BMP280;45905;50.570;10.428;2022-08-21T05:32:37;98053.84;;;16.18
61977;BMP280;45905;50.570;10.428;2022-08-21T05:35:07;98055.19;;;16.20
61977;BMP280;45905;50.570;10.428;2022-08-21T05:37:35;98048.16;;;16.22
61977;BMP280;45905;50.570;10.428;2022-08-21T05:40:04;98058.00;;;16.25
61977;BMP280;45905;50.570;10.428;2022-08-21T05:42:51;98057.84;;;16.26
61977;BMP280;45905;50.570;10.428;2022-08-21T05:45:31;98050.94;;;16.27
61977;BMP280;45905;50.570;10.428;2022-08-21T05:48:24;98057.44;;;16.29
61977;BMP280;45905;50.570;10.428;2022-08-21T05:50:52;98065.50;;;16.26
61977;BMP280;45905;50.570;10.428;2022-08-21T05:53:22;98059.59;;;16.26
61977;BMP280;45905;50.570;10.428;2022-08-21T05:55:51;98063.91;;;16.25
61977;BMP280;45905;50.570;10.428;2022-08-21T05:58:20;98052.53;;;16.28
61977;BMP280;45905;50.570;10.428;2022-08-21T06:00:50;98062.38;;;16.31
61977;BMP280;45905;50.570;10.428;2022-08-21T06:03:29;98050.00;;;16.34
61977;BMP280;45905;50.570;10.428;2022-08-21T06:05:57;98050.22;;;16.39
61977;BMP280;45905;50.570;10.428;2022-08-21T06:08:25;98053.41;;;16.41
61977;BMP280;45905;50.570;10.428;2022-08-21T06:10:55;98053.22;;;16.42
61977;BMP280;45905;50.570;10.428;2022-08-21T06:13:24;98055.34;;;16.39
61977;BMP280;45905;50.570;10.428;2022-08-21T06:16:04;98051.81;;;16.40
61977;BMP280;45905;50.570;10.428;2022-08-21T06:18:34;98051.44;;;16.43
61977;BMP280;45905;50.570;10.428;2022-08-21T06:21:02;98045.19;;;16.45
61977;BMP280;45905;50.570;10.428;2022-08-21T06:23:30;98045.19;;;16.45
61977;BMP280;45905;50.570;10.428;2022-08-21T06:26:01;98045.56;;;16.49
61977;BMP280;45905;50.570;10.428;2022-08-21T06:28:28;98043.63;;;16.51
61977;BMP280;45905;50.570;10.428;2022-08-21T06:30:55;98045.22;;;16.52
61977;BMP280;45905;50.570;10.428;2022-08-21T06:33:22;98044.25;;;16.53
61977;BMP280;45905;50.570;10.428;2022-08-21T06:35:55;98042.25;;;16.55
61977;BMP280;45905;50.570;10.428;2022-08-21T06:38:22;98042.69;;;16.58
61977;BMP280;45905;50.570;10.428;2022-08-21T06:40:49;98049.56;;;16.58
61977;BMP280;45905;50.570;10.428;2022-08-21T06:43:18;98036.41;;;16.61
61977;BMP280;45905;50.570;10.428;2022-08-21T06:45:45;98037.59;;;16.64
61977;BMP280;45905;50.570;10.428;2022-08-21T06:48:13;98042.94;;;16.69
61977;BMP280;45905;50.570;10.428;2022-08-21T06:50:46;98054.00;;;16.76
61977;BMP280;45905;50.570;10.428;2022-08-21T06:53:19;98046.94;;;16.84
61977;BMP280;45905;50.570;10.428;2022-08-21T06:55:48;98046.00;;;16.92
61977;BMP280;45905;50.570;10.428;2022-08-21T06:58:16;98044.88;;;17.00
61977;BMP280;45905;50.570;10.428;2022-08-21T07:00:48;98041.59;;;17.06
61977;BMP280;45905;50.570;10.428;2022-08-21T07:03:31;98034.53;;;17.15
61977;BMP280;45905;50.570;10.428;2022-08-21T07:05:58;98046.34;;;17.22
61977;BMP280;45905;50.570;10.428;2022-08-21T07:08:27;98041.25;;;17.28
61977;BMP280;45905;50.570;10.428;2022-08-21T07:10:59;98044.03;;;17.33
61977;BMP280;45905;50.570;10.428;2022-08-21T07:13:27;98043.63;;;17.36
61977;BMP280;45905;50.570;10.428;2022-08-21T07:15:55;98046.19;;;17.42
61977;BMP280;45905;50.570;10.428;2022-08-21T07:18:29;98043.25;;;17.45
61977;BMP280;45905;50.570;10.428;2022-08-21T07:20:56;98039.34;;;17.49
61977;BMP280;45905;50.570;10.428;2022-08-21T07:23:32;98040.69;;;17.52
61977;BMP280;45905;50.570;10.428;2022-08-21T07:26:00;98038.94;;;17.52
61977;BMP280;45905;50.570;10.428;2022-08-21T07:28:29;98035.38;;;17.53
61977;BMP280;45905;50.570;10.428;2022-08-21T07:30:58;98039.91;;;17.51
61977;BMP280;45905;50.570;10.428;2022-08-21T07:33:29;98028.88;;;17.51
61977;BMP280;45905;50.570;10.428;2022-08-21T07:35:57;98034.41;;;17.54
61977;BMP280;45905;50.570;10.428;2022-08-21T07:38:25;98022.41;;;17.61
61977;BMP280;45905;50.570;10.428;2022-08-21T07:40:56;98031.47;;;17.70
61977;BMP280;45905;50.570;10.428;2022-08-21T07:43:26;98022.81;;;17.71
61977;BMP280;45905;50.570;10.428;2022-08-21T07:45:53;98025.19;;;17.72
61977;BMP280;45905;50.570;10.428;2022-08-21T07:48:24;98018.69;;;17.76
61977;BMP280;45905;50.570;10.428;2022-08-21T07:50:51;98019.47;;;17.76
61977;BMP280;45905;50.570;10.428;2022-08-21T07:53:18;98025.78;;;17.80
61977;BMP280;45905;50.570;10.428;2022-08-21T07:55:46;98013.78;;;17.87
61977;BMP280;45905;50.570;10.428;2022-08-21T07:58:13;98016.75;;;17.91
61977;BMP280;45905;50.570;10.428;2022-08-21T08:00:40;98019.72;;;17.94
61977;BMP280;45905;50.570;10.428;2022-08-21T08:03:08;98009.66;;;17.99
61977;BMP280;45905;50.570;10.428;2022-08-21T08:05:36;98009.63;;;18.05
61977;BMP280;45905;50.570;10.428;2022-08-21T08:08:06;98000.16;;;18.12
61977;BMP280;45905;50.570;10.428;2022-08-21T08:10:34;97999.19;;;18.19
61977;BMP280;45905;50.570;10.428;2022-08-21T08:13:02;97995.63;;;18.27
61977;BMP280;45905;50.570;10.428;2022-08-21T08:15:30;97999.75;;;18.34
61977;BMP280;45905;50.570;10.428;2022-08-21T08:18:03;97993.59;;;18.41
61977;BMP280;45905;50.570;10.428;2022-08-21T08:20:31;97989.84;;;18.50
61977;BMP280;45905;50.570;10.428;2022-08-21T08:22:58;97991.19;;;18.59
61977;BMP280;45905;50.570;10.428;2022-08-21T08:25:27;97985.63;;;18.68
61977;BMP280;45905;50.570;10.428;2022-08-21T08:28:05;97988.00;;;18.76
61977;BMP280;45905;50.570;10.428;2022-08-21T08:30:45;97991.91;;;18.85
61977;BMP280;45905;50.570;10.428;2022-08-21T08:33:13;97992.66;;;18.91
61977;BMP280;45905;50.570;10.428;2022-08-21T08:35:47;97981.16;;;19.00
61977;BMP280;45905;50.570;10.428;2022-08-21T08:38:17;97979.94;;;19.09
61977;BMP280;45905;50.570;10.428;2022-08-21T08:43:33;97969.56;;;19.28
61977;BMP280;45905;50.570;10.428;2022-08-21T08:46:13;97970.28;;;19.41
61977;BMP280;45905;50.570;10.428;2022-08-21T08:48:57;97969.81;;;19.50
61977;BMP280;45905;50.570;10.428;2022-08-21T08:51:55;97961.44;;;19.61
61977;BMP280;45905;50.570;10.428;2022-08-21T08:54:31;97962.41;;;19.67
61977;BMP280;45905;50.570;10.428;2022-08-21T08:57:03;97965.13;;;19.71
61977;BMP280;45905;50.570;10.428;2022-08-21T08:59:51;97970.78;;;19.80
61977;BMP280;45905;50.570;10.428;2022-08-21T09:02:20;97966.63;;;19.85
61977;BMP280;45905;50.570;10.428;2022-08-21T09:04:53;97963.19;;;19.91
61977;BMP280;45905;50.570;10.428;2022-08-21T09:07:53;97958.78;;;19.98
61977;BMP280;45905;50.570;10.428;2022-08-21T09:10:41;97960.66;;;20.08
61977;BMP280;45905;50.570;10.428;2022-08-21T09:13:22;97958.81;;;20.15
61977;BMP280;45905;50.570;10.428;2022-08-21T09:19:03;97950.97;;;20.28
61977;BMP280;45905;50.570;10.428;2022-08-21T09:21:51;97948.50;;;20.39
61977;BMP280;45905;50.570;10.428;2022-08-21T09:25:10;97943.09;;;20.47
61977;BMP280;45905;50.570;10.428;2022-08-21T09:27:39;97940.41;;;20.53
61977;BMP280;45905;50.570;10.428;2022-08-21T09:30:08;97941.53;;;20.57
61977;BMP280;45905;50.570;10.428;2022-08-21T09:32:38;97938.25;;;20.68
61977;BMP280;45905;50.570;10.428;2022-08-21T09:35:14;97942.09;;;20.77
61977;BMP280;45905;50.570;10.428;2022-08-21T09:37:52;97938.44;;;20.84
61977;BMP280;45905;50.570;10.428;2022-08-21T09:40:45;97931.19;;;20.92
61977;BMP280;45905;50.570;10.428;2022-08-21T09:43:22;97935.50;;;20.98
61977;BMP280;45905;50.570;10.428;2022-08-21T09:46:08;97927.47;;;21.06
61977;BMP280;45905;50.570;10.428;2022-08-21T09:48:50;97923.44;;;21.10
61977;BMP280;45905;50.570;10.428;2022-08-21T09:51:26;97920.47;;;21.13
61977;BMP280;45905;50.570;10.428;2022-08-21T09:54:16;97913.88;;;21.17
61977;BMP280;45905;50.570;10.428;2022-08-21T09:56:57;97918.13;;;21.22
61977;BMP280;45905;50.570;10.428;2022-08-21T09:59:46;97914.47;;;21.41
61977;BMP280;45905;50.570;10.428;2022-08-21T10:02:28;97917.41;;;21.56
61977;BMP280;45905;50.570;10.428;2022-08-21T10:05:16;97905.91;;;21.69
61977;BMP280;45905;50.570;10.428;2022-08-21T10:07:44;97902.66;;;21.85
61977;BMP280;45905;50.570;10.428;2022-08-21T10:10:21;97904.47;;;21.96
61977;BMP280;45905;50.570;10.428;2022-08-21T10:19:02;97905.78;;;22.20
61977;BMP280;45905;50.570;10.428;2022-08-21T10:27:22;97893.13;;;22.19
61977;BMP280;45905;50.570;10.428;2022-08-21T10:30:09;97898.38;;;22.24
61977;BMP280;45905;50.570;10.428;2022-08-21T10:35:50;97899.69;;;22.49
61977;BMP280;45905;50.570;10.428;2022-08-21T10:41:46;97895.69;;;22.69
61977;BMP280;45905;50.570;10.428;2022-08-21T10:47:55;97888.91;;;22.90
61977;BMP280;45905;50.570;10.428;2022-08-21T10:50:59;97889.53;;;22.97
61977;BMP280;45905;50.570;10.428;2022-08-21T10:54:06;97895.88;;;23.06
61977;BMP280;45905;50.570;10.428;2022-08-21T10:56:40;97886.56;;;23.05
61977;BMP280;45905;50.570;10.428;2022-08-21T10:59:28;97875.81;;;22.96
61977;BMP280;45905;50.570;10.428;2022-08-21T11:02:35;97868.53;;;22.94
61977;BMP280;45905;50.570;10.428;2022-08-21T11:05:17;97866.50;;;22.95
61977;BMP280;45905;50.570;10.428;2022-08-21T11:08:23;97871.84;;;23.05
61977;BMP280;45905;50.570;10.428;2022-08-21T11:11:20;97863.94;;;23.12
61977;BMP280;45905;50.570;10.428;2022-08-21T11:13:56;97872.09;;;23.20
61977;BMP280;45905;50.570;10.428;2022-08-21T11:16:42;97864.09;;;23.33
61977;BMP280;45905;50.570;10.428;2022-08-21T11:19:35;97869.19;;;23.44
61977;BMP280;45905;50.570;10.428;2022-08-21T11:22:52;97871.28;;;23.47
61977;BMP280;45905;50.570;10.428;2022-08-21T11:25:26;97869.75;;;23.46
61977;BMP280;45905;50.570;10.428;2022-08-21T11:28:17;97881.00;;;23.40
61977;BMP280;45905;50.570;10.428;2022-08-21T11:34:22;97869.38;;;23.26
61977;BMP280;45905;50.570;10.428;2022-08-21T11:39:57;97853.50;;;23.34
61977;BMP280;45905;50.570;10.428;2022-08-21T11:45:49;97851.31;;;23.42
61977;BMP280;45905;50.570;10.428;2022-08-21T11:51:24;97849.41;;;23.70
61977;BMP280;45905;50.570;10.428;2022-08-21T11:54:13;97847.66;;;23.75
61977;BMP280;45905;50.570;10.428;2022-08-21T11:56:57;97844.78;;;23.72
61977;BMP280;45905;50.570;10.428;2022-08-21T12:02:35;97837.22;;;23.87
61977;BMP280;45905;50.570;10.428;2022-08-21T12:05:11;97835.59;;;23.97
61977;BMP280;45905;50.570;10.428;2022-08-21T12:07:43;97833.16;;;24.07
61977;BMP280;45905;50.570;10.428;2022-08-21T12:10:35;97842.44;;;24.08
61977;BMP280;45905;50.570;10.428;2022-08-21T12:13:25;97837.03;;;24.09
61977;BMP280;45905;50.570;10.428;2022-08-21T12:16:38;97842.75;;;24.11
61977;BMP280;45905;50.570;10.428;2022-08-21T12:24:43;97836.31;;;24.34
61977;BMP280;45905;50.570;10.428;2022-08-21T12:27:39;97838.06;;;24.50
61977;BMP280;45905;50.570;10.428;2022-08-21T12:30:33;97831.50;;;24.64
61977;BMP280;45905;50.570;10.428;2022-08-21T12:33:17;97826.31;;;24.64
61977;BMP280;45905;50.570;10.428;2022-08-21T12:35:46;97818.56;;;24.64
61977;BMP280;45905;50.570;10.428;2022-08-21T12:38:27;97814.03;;;24.75
61977;BMP280;45905;50.570;10.428;2022-08-21T12:41:10;97815.75;;;24.96
61977;BMP280;45905;50.570;10.428;2022-08-21T12:44:10;97814.91;;;25.16
61977;BMP280;45905;50.570;10.428;2022-08-21T12:47:12;97800.03;;;25.33
61977;BMP280;45905;50.570;10.428;2022-08-21T12:50:06;97812.06;;;25.48
61977;BMP280;45905;50.570;10.428;2022-08-21T12:52:41;97792.63;;;25.51
61977;BMP280;45905;50.570;10.428;2022-08-21T12:55:14;97796.00;;;25.51
61977;BMP280;45905;50.570;10.428;2022-08-21T12:57:42;97790.31;;;25.54
61977;BMP280;45905;50.570;10.428;2022-08-21T13:00:13;97795.75;;;25.53
61977;BMP280;45905;50.570;10.428;2022-08-21T13:02:49;97792.88;;;25.49
61977;BMP280;45905;50.570;10.428;2022-08-21T13:05:34;97795.47;;;25.49
61977;BMP280;45905;50.570;10.428;2022-08-21T13:08:10;97793.41;;;25.51
61977;BMP280;45905;50.570;10.428;2022-08-21T13:10:41;97790.31;;;25.54
61977;BMP280;45905;50.570;10.428;2022-08-21T13:13:29;97793.44;;;25.56
61977;BMP280;45905;50.570;10.428;2022-08-21T13:16:06;97799.94;;;25.59
61977;BMP280;45905;50.570;10.428;2022-08-21T13:19:06;97785.81;;;25.81
61977;BMP280;45905;50.570;10.428;2022-08-21T13:21:41;97793.78;;;26.15
61977;BMP280;45905;50.570;10.428;2022-08-21T13:30:13;97780.22;;;26.78
61977;BMP280;45905;50.570;10.428;2022-08-21T13:32:45;97772.13;;;26.89
61977;BMP280;45905;50.570;10.428;2022-08-21T13:35:46;97772.69;;;27.10
61977;BMP280;45905;50.570;10.428;2022-08-21T13:38:15;97776.31;;;27.24
61977;BMP280;45905;50.570;10.428;2022-08-21T13:40:55;97769.53;;;27.42
61977;BMP280;45905;50.570;10.428;2022-08-21T13:43:32;97777.59;;;27.56
61977;BMP280;45905;50.570;10.428;2022-08-21T13:46:02;97764.81;;;27.64
61977;BMP280;45905;50.570;10.428;2022-08-21T13:48:35;97768.47;;;27.73
61977;BMP280;45905;50.570;10.428;2022-08-21T13:51:03;97770.53;;;27.80
61977;BMP280;45905;50.570;10.428;2022-08-21T13:53:46;97771.03;;;27.87
61977;BMP280;45905;50.570;10.428;2022-08-21T13:56:45;97778.84;;;27.92
61977;BMP280;45905;50.570;10.428;2022-08-21T13:59:41;97770.97;;;28.02
61977;BMP280;45905;50.570;10.428;2022-08-21T14:02:19;97772.53;;;28.08
61977;BMP280;45905;50.570;10.428;2022-08-21T14:05:01;97769.31;;;28.20
61977;BMP280;45905;50.570;10.428;2022-08-21T14:07:37;97754.94;;;28.37
61977;BMP280;45905;50.570;10.428;2022-08-21T14:10:20;97753.31;;;28.51
61977;BMP280;45905;50.570;10.428;2022-08-21T14:12:59;97759.16;;;28.71
61977;BMP280;45905;50.570;10.428;2022-08-21T14:15:32;97757.28;;;28.81
61977;BMP280;45905;50.570;10.428;2022-08-21T14:18:18;97757.78;;;28.83
61977;BMP280;45905;50.570;10.428;2022-08-21T14:20:46;97749.66;;;28.90
61977;BMP280;45905;50.570;10.428;2022-08-21T14:23:25;97750.69;;;28.93
61977;BMP280;45905;50.570;10.428;2022-08-21T14:25:59;97739.72;;;28.96
61977;BMP280;45905;50.570;10.428;2022-08-21T14:28:32;97740.38;;;29.07
61977;BMP280;45905;50.570;10.428;2022-08-21T14:31:20;97732.00;;;29.10
61977;BMP280;45905;50.570;10.428;2022-08-21T14:33:48;97735.94;;;29.07
61977;BMP280;45905;50.570;10.428;2022-08-21T14:36:15;97736.59;;;28.94
61977;BMP280;45905;50.570;10.428;2022-08-21T14:38:42;97742.97;;;28.79
61977;BMP280;45905;50.570;10.428;2022-08-21T14:41:22;97745.31;;;28.75
61977;BMP280;45905;50.570;10.428;2022-08-21T14:43:51;97744.78;;;28.73
61977;BMP280;45905;50.570;10.428;2022-08-21T14:46:33;97744.56;;;28.70
61977;BMP280;45905;50.570;10.428;2022-08-21T14:49:04;97745.03;;;28.77
61977;BMP280;45905;50.570;10.428;2022-08-21T14:51:32;97741.13;;;28.74
61977;BMP280;45905;50.570;10.428;2022-08-21T14:53:59;97748.22;;;28.69
61977;BMP280;45905;50.570;10.428;2022-08-21T14:56:26;97748.03;;;28.61
61977;BMP280;45905;50.570;10.428;2022-08-21T14:59:06;97745.69;;;28.54
61977;BMP280;45905;50.570;10.428;2022-08-21T15:01:37;97741.53;;;28.58
61977;BMP280;45905;50.570;10.428;2022-08-21T15:04:04;97745.63;;;28.64
61977;BMP280;45905;50.570;10.428;2022-08-21T15:06:32;97745.63;;;28.64
61977;BMP280;45905;50.570;10.428;2022-08-21T15:08:59;97740.94;;;28.66
61977;BMP280;45905;50.570;10.428;2022-08-21T15:11:28;97739.06;;;28.72
61977;BMP280;45905;50.570;10.428;2022-08-21T15:14:25;97724.19;;;28.77
61977;BMP280;45905;50.570;10.428;2022-08-21T15:16:52;97717.38;;;28.86
61977;BMP280;45905;50.570;10.428;2022-08-21T15:19:20;97715.84;;;28.80
61977;BMP280;45905;50.570;10.428;2022-08-21T15:21:47;97713.72;;;28.87
61977;BMP280;45905;50.570;10.428;2022-08-21T15:24:15;97716.50;;;28.95
61977;BMP280;45905;50.570;10.428;2022-08-21T15:26:43;97717.28;;;28.95
61977;BMP280;45905;50.570;10.428;2022-08-21T15:29:11;97725.63;;;28.97
61977;BMP280;45905;50.570;10.428;2022-08-21T15:32:02;97716.19;;;29.01
61977;BMP280;45905;50.570;10.428;2022-08-21T15:34:31;97717.41;;;29.09